Time;durP1;ratioP1;P1;durP2;ratioP2;P2;SDS_P1;SDS_P2;PMS_P1;PMS_P2;Temp;Humidity;BMP_temperature;BMP_pressure;BME280_temperature;BME280_humidity;BME280_pressure;Samples;Min_cycle;Max_cycle;Signal;HPM_P1;HPM_P2
2022/09/20 00:00:40;;;;;;;11.80;2.40;;;11.10;99.90;;;;;;5047543;28;20515;-60
2022/09/20 00:03:06;;;;;;;15.50;2.80;;;11.10;99.90;;;;;;5037908;28;20091;-60
2022/09/20 00:05:37;;;;;;;10.23;1.98;;;11.10;99.90;;;;;;5033268;28;20053;-60
2022/09/20 00:08:04;;;;;;;14.23;2.45;;;11.20;99.90;;;;;;5046867;28;20048;-60
2022/09/20 00:10:36;;;;;;;10.43;2.33;;;11.10;99.90;;;;;;5046479;28;20041;-61
2022/09/20 00:13:03;;;;;;;13.23;2.70;;;11.10;99.90;;;;;;5029311;28;20056;-60
2022/09/20 00:15:29;;;;;;;11.90;2.35;;;11.00;99.90;;;;;;5043458;28;20434;-60
2022/09/20 00:17:55;;;;;;;14.32;2.47;;;11.10;99.90;;;;;;5032112;28;20075;-60
2022/09/20 00:20:21;;;;;;;7.90;2.10;;;11.10;99.90;;;;;;5040343;28;20045;-60
2022/09/20 00:22:48;;;;;;;9.15;2.63;;;11.10;99.90;;;;;;5036807;28;20076;-61
2022/09/20 00:25:21;;;;;;;11.00;2.65;;;11.10;99.90;;;;;;5034605;28;20408;-60
2022/09/20 00:27:47;;;;;;;11.07;2.17;;;11.40;99.90;;;;;;5041737;28;20127;-60
2022/09/20 00:30:13;;;;;;;11.40;2.33;;;11.20;99.90;;;;;;5029178;28;20079;-60
2022/09/20 00:32:40;;;;;;;10.68;2.80;;;11.30;99.90;;;;;;5044746;28;20159;-60
2022/09/20 00:35:06;;;;;;;11.05;2.38;;;11.40;99.90;;;;;;5029473;28;20045;-61
2022/09/20 00:37:36;;;;;;;13.48;2.70;;;11.30;99.90;;;;;;5042353;28;20284;-60
2022/09/20 00:40:04;;;;;;;13.90;2.67;;;11.40;99.90;;;;;;5033151;28;20049;-60
2022/09/20 00:42:30;;;;;;;13.52;2.53;;;11.20;99.90;;;;;;5045303;28;20052;-60
2022/09/20 00:45:00;;;;;;;9.73;2.22;;;11.30;99.90;;;;;;5047050;28;20041;-60
2022/09/20 00:47:39;;;;;;;12.50;2.70;;;11.20;99.90;;;;;;5032353;28;20063;-59
2022/09/20 00:50:26;;;;;;;9.48;2.10;;;11.10;99.90;;;;;;5044883;28;20052;-61
2022/09/20 00:52:58;;;;;;;11.90;2.20;;;11.00;99.90;;;;;;5031226;28;20091;-60
2022/09/20 00:55:25;;;;;;;11.57;3.30;;;11.00;99.90;;;;;;5037872;28;20408;-62
2022/09/20 00:57:51;;;;;;;11.07;2.63;;;11.00;99.90;;;;;;5035508;28;20539;-61
2022/09/20 01:00:16;;;;;;;14.77;2.92;;;10.80;99.90;;;;;;5034801;28;20145;-60
2022/09/20 01:02:48;;;;;;;10.02;2.65;;;10.70;99.90;;;;;;5025868;28;20629;-60
2022/09/20 01:05:15;;;;;;;10.48;2.42;;;10.80;99.90;;;;;;5039616;28;20048;-59
2022/09/20 01:07:43;;;;;;;12.32;2.95;;;10.60;99.90;;;;;;5038142;28;20045;-60
2022/09/20 01:10:08;;;;;;;12.13;3.03;;;10.60;99.90;;;;;;5042107;28;20042;-59
2022/09/20 01:12:35;;;;;;;10.13;2.78;;;10.60;99.90;;;;;;5031229;28;20068;-63
2022/09/20 01:15:06;;;;;;;9.77;2.90;;;10.50;99.90;;;;;;5038649;28;20121;-59
2022/09/20 01:17:35;;;;;;;12.45;3.00;;;10.50;99.90;;;;;;5036483;28;20096;-62
2022/09/20 01:20:12;;;;;;;14.88;3.13;;;10.50;99.90;;;;;;5033214;28;20049;-61
2022/09/20 01:23:05;;;;;;;11.98;2.80;;;10.40;99.90;;;;;;5042357;28;20115;-60
2022/09/20 01:25:59;;;;;;;11.02;2.90;;;10.30;99.90;;;;;;5029499;28;20114;-62
2022/09/20 01:28:27;;;;;;;11.68;3.15;;;10.30;99.90;;;;;;5035822;28;20041;-61
2022/09/20 01:31:07;;;;;;;12.73;3.00;;;10.20;99.90;;;;;;5038130;28;20037;-63
2022/09/20 01:33:43;;;;;;;14.18;2.80;;;10.20;99.90;;;;;;5028411;28;20045;-60
2022/09/20 01:36:15;;;;;;;7.63;2.45;;;10.10;99.90;;;;;;5042241;28;20037;-59
2022/09/20 01:39:09;;;;;;;14.20;3.17;;;10.20;99.90;;;;;;5030410;28;20049;-61
2022/09/20 01:41:51;;;;;;;13.48;3.03;;;10.10;99.90;;;;;;5043731;28;20373;-62
2022/09/20 01:44:21;;;;;;;14.20;3.05;;;10.10;99.90;;;;;;5045500;28;20109;-61
2022/09/20 01:46:53;;;;;;;12.07;2.78;;;10.10;99.90;;;;;;5028593;28;20140;-62
2022/09/20 01:49:51;;;;;;;11.70;2.58;;;10.10;99.90;;;;;;5028309;28;20520;-63
2022/09/20 01:52:51;;;;;;;13.50;2.90;;;10.20;99.90;;;;;;5037398;28;20065;-61
2022/09/20 01:55:44;;;;;;;12.65;2.80;;;10.20;99.90;;;;;;5040083;28;20060;-60
2022/09/20 01:58:24;;;;;;;8.52;2.10;;;10.30;99.90;;;;;;5028757;28;20029;-62
2022/09/20 02:01:29;;;;;;;11.52;2.15;;;10.30;99.90;;;;;;5038432;28;20049;-60
2022/09/20 02:04:16;;;;;;;12.15;2.30;;;10.30;99.90;;;;;;5039567;28;20072;-60
2022/09/20 02:07:03;;;;;;;11.90;2.30;;;10.30;99.90;;;;;;5034968;28;20053;-62
2022/09/20 02:09:55;;;;;;;10.20;2.30;;;10.30;99.90;;;;;;5031323;28;20045;-61
2022/09/20 02:12:25;;;;;;;11.10;2.70;;;10.40;99.90;;;;;;5045406;28;20491;-61
2022/09/20 02:15:22;;;;;;;8.07;2.58;;;10.40;99.90;;;;;;5031225;28;20047;-63
2022/09/20 02:17:58;;;;;;;10.38;2.42;;;10.40;99.90;;;;;;5028214;28;20058;-60
2022/09/20 02:20:51;;;;;;;9.40;2.10;;;10.30;99.90;;;;;;5039320;28;20462;-63
2022/09/20 02:23:46;;;;;;;9.50;2.13;;;10.30;99.90;;;;;;5118764;22;20079;-61
2022/09/20 02:26:48;;;;;;;8.00;2.03;;;10.20;99.90;;;;;;5057546;28;20060;-61
2022/09/20 02:29:38;;;;;;;8.65;2.13;;;10.20;99.90;;;;;;5051489;28;20309;-59
2022/09/20 02:32:24;;;;;;;12.50;2.65;;;10.20;99.90;;;;;;5053537;28;20049;-61
2022/09/20 02:35:05;;;;;;;10.25;2.10;;;10.20;99.90;;;;;;5062276;28;20055;-60
2022/09/20 02:37:39;;;;;;;10.73;2.50;;;10.10;99.90;;;;;;5047004;28;20439;-60
2022/09/20 02:40:31;;;;;;;12.48;2.17;;;10.20;99.90;;;;;;5049751;28;20040;-62
2022/09/20 02:43:02;;;;;;;10.95;2.30;;;10.00;99.90;;;;;;5057656;28;20041;-61
2022/09/20 02:46:00;;;;;;;11.05;2.50;;;10.00;99.90;;;;;;5062415;28;20043;-60
2022/09/20 02:48:50;;;;;;;8.82;2.45;;;10.10;99.90;;;;;;5051274;28;20048;-61
2022/09/20 02:51:38;;;;;;;7.95;1.95;;;10.00;99.90;;;;;;5059844;28;20132;-60
2022/09/20 02:54:23;;;;;;;7.75;2.00;;;10.00;99.90;;;;;;5061711;28;20053;-61
2022/09/20 02:57:13;;;;;;;8.90;2.30;;;10.00;99.90;;;;;;5069562;28;20045;-63
2022/09/20 03:00:09;;;;;;;8.13;2.10;;;10.00;99.90;;;;;;5053353;28;20071;-61
2022/09/20 03:03:05;;;;;;;12.75;2.70;;;10.00;99.90;;;;;;5058027;28;20059;-60
2022/09/20 03:06:01;;;;;;;8.73;2.17;;;9.90;99.90;;;;;;5060748;28;20128;-61
2022/09/20 03:08:38;;;;;;;11.70;2.45;;;9.80;99.90;;;;;;5053473;28;20052;-60
2022/09/20 03:11:25;;;;;;;8.13;2.40;;;9.80;99.90;;;;;;5059361;28;20379;-61
2022/09/20 03:14:10;;;;;;;8.57;2.10;;;9.70;99.90;;;;;;5062610;28;20091;-60
2022/09/20 03:16:58;;;;;;;8.88;2.30;;;9.60;99.90;;;;;;5050486;28;20460;-63
2022/09/20 03:19:32;;;;;;;12.30;2.70;;;9.50;99.90;;;;;;5063178;28;20120;-60
2022/09/20 03:22:35;;;;;;;7.45;2.65;;;9.40;99.90;;;;;;5056764;28;20053;-60
2022/09/20 03:25:13;;;;;;;8.20;2.20;;;9.40;99.90;;;;;;5052519;28;20064;-62
2022/09/20 03:27:50;;;;;;;10.95;2.30;;;9.30;99.90;;;;;;5065712;28;20044;-60
2022/09/20 03:30:25;;;;;;;10.98;2.45;;;9.20;99.90;;;;;;5053262;28;20115;-60
2022/09/20 03:32:53;;;;;;;;;;;9.20;99.90;;;;;;5060572;28;20073;-63
2022/09/20 03:35:30;;;;;;;11.68;2.38;;;8.90;99.90;;;;;;5059210;28;19920;-62
2022/09/20 03:38:14;;;;;;;11.57;2.38;;;8.90;99.90;;;;;;5054372;28;20067;-60
2022/09/20 03:41:09;;;;;;;11.35;2.25;;;8.80;99.90;;;;;;5065240;28;20052;-63
2022/09/20 03:43:44;;;;;;;;;;;8.70;99.90;;;;;;5054586;28;20124;-62
2022/09/20 03:46:25;;;;;;;9.20;2.85;;;8.70;99.90;;;;;;5058434;28;19920;-60
2022/09/20 03:48:54;;;;;;;13.02;3.38;;;8.60;99.90;;;;;;5061860;28;20040;-60
2022/09/20 03:51:44;;;;;;;15.35;2.95;;;9.00;99.90;;;;;;5052674;28;20084;-60
2022/09/20 03:54:47;;;;;;;11.63;2.55;;;8.60;99.90;;;;;;5050233;28;20040;-60
2022/09/20 03:57:41;;;;;;;9.32;2.67;;;8.60;99.90;;;;;;5057041;28;20129;-60
2022/09/20 04:00:34;;;;;;;11.32;2.50;;;8.70;99.90;;;;;;5063866;28;20041;-60
2022/09/20 04:03:27;;;;;;;7.90;2.20;;;8.80;99.90;;;;;;5066120;28;20044;-59
2022/09/20 04:06:17;;;;;;;8.95;2.35;;;8.80;99.90;;;;;;5061526;28;20077;-62
2022/09/20 04:09:27;;;;;;;10.30;2.25;;;8.70;99.90;;;;;;5066800;28;20060;-60
2022/09/20 04:12:19;;;;;;;8.13;2.25;;;8.60;99.90;;;;;;5053285;28;20036;-63
2022/09/20 04:15:22;;;;;;;8.35;1.90;;;8.50;99.90;;;;;;5056434;28;20045;-60
2022/09/20 04:18:04;;;;;;;7.95;2.17;;;8.50;99.90;;;;;;5065434;28;20392;-61
2022/09/20 04:21:12;;;;;;;7.25;2.17;;;8.40;99.90;;;;;;5051599;28;20040;-64
2022/09/20 04:24:09;;;;;;;5.75;1.90;;;8.30;99.90;;;;;;5051211;28;20049;-60
2022/09/20 04:26:42;;;;;;;7.85;2.08;;;8.60;99.90;;;;;;5063986;28;20421;-60
2022/09/20 04:29:17;;;;;;;7.60;2.22;;;8.30;99.90;;;;;;5049646;28;20044;-63
2022/09/20 04:31:46;;;;;;;;;;;8.30;99.90;;;;;;5060620;28;20444;-62
2022/09/20 04:34:20;;;;;;;6.88;1.55;;;8.30;99.90;;;;;;5056423;28;19968;-60
2022/09/20 04:37:01;;;;;;;8.52;2.00;;;8.20;99.90;;;;;;5054633;28;20163;-60
2022/09/20 04:39:46;;;;;;;7.22;1.77;;;8.30;99.90;;;;;;5062944;28;20083;-60
2022/09/20 04:42:30;;;;;;;10.27;2.85;;;8.30;99.90;;;;;;5049887;28;20047;-62
2022/09/20 04:45:27;;;;;;;9.30;1.90;;;8.30;99.90;;;;;;5059001;28;20045;-60
2022/09/20 04:48:29;;;;;;;11.88;2.55;;;8.10;99.90;;;;;;5060987;28;20383;-61
2022/09/20 04:51:25;;;;;;;10.43;1.63;;;8.00;99.90;;;;;;5048707;28;20041;-59
2022/09/20 04:54:16;;;;;;;9.07;1.63;;;8.00;99.90;;;;;;5058142;28;20048;-61
2022/09/20 04:57:04;;;;;;;7.10;1.80;;;8.00;99.90;;;;;;5061716;28;20373;-61
2022/09/20 04:59:58;;;;;;;7.38;2.00;;;8.00;99.90;;;;;;5048001;28;20159;-60
2022/09/20 05:02:45;;;;;;;8.35;1.92;;;8.00;99.90;;;;;;5058415;28;20248;-62
2022/09/20 05:05:29;;;;;;;8.25;1.88;;;8.00;99.90;;;;;;5055597;28;20045;-61
2022/09/20 05:08:24;;;;;;;7.32;2.22;;;8.00;99.90;;;;;;5064899;28;20070;-59
2022/09/20 05:10:58;;;;;;;6.07;1.90;;;8.00;99.90;;;;;;5050789;28;20032;-60
2022/09/20 05:13:49;;;;;;;12.45;2.10;;;7.90;99.90;;;;;;5057789;28;20431;-62
2022/09/20 05:16:28;;;;;;;11.68;2.10;;;8.00;99.90;;;;;;5059849;28;20115;-60
2022/09/20 05:18:54;;;;;;;10.77;2.00;;;8.00;99.90;;;;;;5048778;28;20097;-61
2022/09/20 05:21:41;;;;;;;7.00;2.15;;;8.00;99.90;;;;;;5064595;28;20669;-60
2022/09/20 05:24:27;;;;;;;7.75;2.17;;;8.10;99.90;;;;;;5051337;28;20041;-60
2022/09/20 05:27:18;;;;;;;9.68;2.25;;;8.10;99.90;;;;;;5054882;28;20627;-61
2022/09/20 05:29:56;;;;;;;8.63;2.38;;;8.00;99.90;;;;;;5062501;28;20463;-61
2022/09/20 05:32:44;;;;;;;7.43;2.55;;;8.40;99.90;;;;;;5048726;28;20103;-60
2022/09/20 05:35:27;;;;;;;6.28;2.17;;;8.10;99.90;;;;;;5057976;28;20040;-61
2022/09/20 05:38:20;;;;;;;9.43;2.92;;;8.10;99.90;;;;;;5057838;28;20075;-62
2022/09/20 05:41:12;;;;;;;8.23;2.60;;;8.00;99.90;;;;;;5047269;28;20090;-60
2022/09/20 05:44:11;;;;;;;8.63;2.30;;;7.90;99.90;;;;;;5062996;28;20595;-61
2022/09/20 05:47:04;;;;;;;7.22;2.78;;;7.90;99.90;;;;;;5027258;28;20385;-60
2022/09/20 05:49:54;;;;;;;9.07;2.30;;;7.90;99.90;;;;;;5062553;28;20119;-61
2022/09/20 05:52:38;;;;;;;5.40;2.28;;;8.00;99.90;;;;;;5050781;28;20115;-60
2022/09/20 05:55:23;;;;;;;7.70;2.90;;;8.00;99.90;;;;;;5055219;28;20048;-61
2022/09/20 05:58:00;;;;;;;8.45;3.42;;;8.00;99.90;;;;;;5059749;28;20098;-60
2022/09/20 06:00:40;;;;;;;10.90;3.17;;;7.90;99.90;;;;;;5048004;28;20796;-61
2022/09/20 06:03:29;;;;;;;7.47;2.72;;;7.90;99.90;;;;;;5044332;28;20423;-61
2022/09/20 06:06:00;;;;;;;9.85;3.72;;;7.90;99.90;;;;;;5052008;28;20124;-61
2022/09/20 06:08:32;;;;;;;11.35;3.72;;;7.80;99.90;;;;;;5059224;28;20049;-61
2022/09/20 06:11:35;;;;;;;8.40;3.78;;;8.10;99.90;;;;;;5048822;28;20502;-61
2022/09/20 06:14:33;;;;;;;10.05;3.60;;;7.90;99.90;;;;;;5048136;28;20052;-61
2022/09/20 06:17:17;;;;;;;10.35;3.25;;;7.80;99.90;;;;;;5054016;28;20045;-62
2022/09/20 06:19:52;;;;;;;7.60;3.40;;;8.00;99.90;;;;;;5059825;28;20052;-61
2022/09/20 06:22:38;;;;;;;8.10;3.05;;;8.10;99.90;;;;;;5046403;28;20103;-61
2022/09/20 06:25:16;;;;;;;10.57;3.00;;;8.20;99.90;;;;;;5049102;28;20086;-60
2022/09/20 06:27:57;;;;;;;7.45;2.63;;;8.30;99.90;;;;;;5056117;28;20399;-61
2022/09/20 06:30:31;;;;;;;5.97;2.53;;;8.30;99.90;;;;;;5056893;28;20051;-61
2022/09/20 06:33:19;;;;;;;9.43;2.63;;;8.30;99.90;;;;;;5049928;28;20390;-61
2022/09/20 06:35:56;;;;;;;12.73;3.03;;;8.40;99.90;;;;;;5047585;28;20098;-61
2022/09/20 06:41:43;;;;;;;8.18;2.63;;;8.50;99.90;;;;;;5059862;28;20052;-60
2022/09/20 06:44:08;;;;;;;8.10;2.28;;;8.50;99.90;;;;;;5047297;28;20103;-61
2022/09/20 06:46:35;;;;;;;7.93;2.72;;;8.70;99.90;;;;;;5060811;28;20044;-60
2022/09/20 06:49:01;;;;;;;8.95;2.80;;;8.70;99.90;;;;;;5048874;28;20040;-60
2022/09/20 06:51:33;;;;;;;8.15;2.35;;;8.80;99.90;;;;;;5058014;28;20436;-62
2022/09/20 06:53:59;;;;;;;9.20;2.63;;;9.30;99.90;;;;;;5052660;28;20439;-60
2022/09/20 06:56:29;;;;;;;9.98;2.38;;;9.50;99.90;;;;;;5054412;28;20102;-60
2022/09/20 06:58:55;;;;;;;11.32;2.70;;;9.50;99.90;;;;;;5057927;28;20045;-60
2022/09/20 07:01:21;;;;;;;10.23;2.97;;;9.70;99.90;;;;;;5049444;28;20045;-61
2022/09/20 07:03:47;;;;;;;8.15;2.65;;;9.90;99.90;;;;;;5061169;28;20049;-60
2022/09/20 07:06:16;;;;;;;7.70;2.67;;;9.90;99.90;;;;;;5050941;28;20041;-61
2022/09/20 07:08:42;;;;;;;6.82;2.97;;;10.20;99.90;;;;;;5063260;28;20056;-60
2022/09/20 07:11:17;;;;;;;9.18;2.92;;;10.00;99.90;;;;;;5057793;28;20041;-60
2022/09/20 07:13:43;;;;;;;7.97;2.80;;;10.10;99.90;;;;;;5053239;28;20060;-61
2022/09/20 07:16:12;;;;;;;8.98;3.20;;;10.00;99.90;;;;;;5053340;28;20479;-60
2022/09/20 07:18:40;;;;;;;10.77;3.45;;;10.00;99.90;;;;;;5056267;28;20052;-60
2022/09/20 07:21:07;;;;;;;6.20;2.70;;;10.10;99.90;;;;;;5046938;28;20072;-60
2022/09/20 07:23:33;;;;;;;9.10;3.22;;;10.10;99.90;;;;;;5061711;28;20057;-61
2022/09/20 07:25:59;;;;;;;6.07;2.80;;;10.10;99.90;;;;;;5045905;28;20045;-61
2022/09/20 07:28:31;;;;;;;10.75;3.08;;;10.20;99.90;;;;;;5059746;28;20451;-62
2022/09/20 07:30:57;;;;;;;9.57;2.85;;;10.10;99.90;;;;;;5054916;28;20036;-62
2022/09/20 07:33:23;;;;;;;8.18;2.70;;;10.20;99.90;;;;;;5059202;28;20041;-66
2022/09/20 07:35:54;;;;;;;6.45;3.00;;;10.20;99.90;;;;;;5058714;28;20406;-60
2022/09/20 07:38:21;;;;;;;7.60;3.03;;;10.40;99.90;;;;;;5054552;28;20045;-60
2022/09/20 07:40:59;;;;;;;10.48;2.60;;;10.50;99.90;;;;;;5062591;28;20408;-60
2022/09/20 07:43:25;;;;;;;12.90;3.30;;;10.90;99.90;;;;;;5049235;28;20049;-61
2022/09/20 07:45:54;;;;;;;9.18;3.10;;;11.10;99.90;;;;;;5045432;28;20136;-60
2022/09/20 07:48:31;;;;;;;10.65;2.42;;;11.70;99.90;;;;;;5052828;28;20057;-62
2022/09/20 07:51:12;;;;;;;7.45;2.30;;;11.30;99.90;;;;;;5056323;28;20433;-61
2022/09/20 07:53:38;;;;;;;6.57;1.90;;;11.30;99.90;;;;;;5060540;28;20055;-59
2022/09/20 07:56:14;;;;;;;6.68;1.63;;;11.20;99.90;;;;;;5051322;28;20067;-63
2022/09/20 07:58:41;;;;;;;9.23;1.80;;;11.10;99.90;;;;;;5065956;28;20044;-61
2022/09/20 08:01:09;;;;;;;7.15;1.90;;;11.10;99.90;;;;;;5051082;28;20062;-60
2022/09/20 08:03:35;;;;;;;6.90;1.88;;;11.10;99.90;;;;;;5060520;28;20032;-60
2022/09/20 08:06:03;;;;;;;8.88;2.00;;;11.10;99.90;;;;;;5054045;28;20053;-60
2022/09/20 08:08:32;;;;;;;7.65;2.05;;;11.00;99.90;;;;;;5061093;28;20052;-60
2022/09/20 08:11:06;;;;;;;7.25;1.73;;;11.00;99.90;;;;;;5054966;28;20075;-60
2022/09/20 08:13:36;;;;;;;6.80;1.75;;;11.00;99.90;;;;;;5062841;28;20040;-60
2022/09/20 08:16:04;;;;;;;8.77;2.33;;;11.20;99.90;;;;;;5048367;28;20371;-60
2022/09/20 08:18:30;;;;;;;8.65;1.95;;;11.10;99.90;;;;;;5063179;28;20055;-60
2022/09/20 08:20:56;;;;;;;6.72;1.77;;;11.30;99.90;;;;;;5050753;28;20147;-60
2022/09/20 08:23:22;;;;;;;6.53;1.60;;;11.50;99.90;;;;;;5060524;28;20140;-60
2022/09/20 08:25:48;;;;;;;7.22;1.38;;;11.60;99.90;;;;;;5053822;28;20049;-60
2022/09/20 08:28:14;;;;;;;4.30;1.23;;;12.10;99.90;;;;;;5056351;28;20174;-60
2022/09/20 08:30:40;;;;;;;5.80;1.30;;;11.90;99.90;;;;;;5059961;28;20127;-59
2022/09/20 08:33:06;;;;;;;5.15;1.67;;;12.10;99.90;;;;;;5051820;28;20057;-69
2022/09/20 08:35:34;;;;;;;5.43;1.35;;;12.30;99.90;;;;;;5064396;28;20056;-60
2022/09/20 08:38:00;;;;;;;4.63;1.00;;;12.80;99.90;;;;;;5048548;28;20128;-61
2022/09/20 08:40:29;;;;;;;5.68;1.88;;;12.80;99.90;;;;;;5062825;28;20167;-59
2022/09/20 08:42:56;;;;;;;6.18;1.20;;;13.10;99.90;;;;;;5051107;28;20044;-60
2022/09/20 08:45:24;;;;;;;4.93;1.00;;;13.20;99.90;;;;;;5059510;28;20045;-61
2022/09/20 08:47:55;;;;;;;7.45;1.40;;;13.50;99.90;;;;;;5056397;28;20048;-61
2022/09/20 08:50:21;;;;;;;8.82;1.50;;;13.50;99.90;;;;;;5052528;28;20053;-60
2022/09/20 08:52:50;;;;;;;5.70;0.88;;;13.60;99.90;;;;;;5061007;28;20052;-61
2022/09/20 08:55:18;;;;;;;4.78;0.93;;;13.90;99.90;;;;;;5047165;28;20086;-61
2022/09/20 08:57:55;;;;;;;7.50;1.38;;;14.00;99.90;;;;;;5063734;28;20123;-61
2022/09/20 09:00:30;;;;;;;5.55;1.20;;;14.70;99.90;;;;;;5049034;28;20218;-60
2022/09/20 09:02:59;;;;;;;5.38;1.13;;;15.20;99.90;;;;;;5053052;28;20044;-60
2022/09/20 09:05:28;;;;;;;5.40;0.85;;;15.60;99.90;;;;;;5053390;28;20049;-62
2022/09/20 09:07:54;;;;;;;5.45;1.15;;;15.80;99.90;;;;;;5058269;28;20049;-61
2022/09/20 09:10:19;;;;;;;5.72;0.90;;;15.90;99.90;;;;;;5049052;28;20388;-60
2022/09/20 09:12:46;;;;;;;5.55;1.05;;;16.80;99.90;;;;;;5061795;28;20363;-61
2022/09/20 09:15:29;;;;;;;5.70;0.95;;;17.20;99.90;;;;;;5045176;28;20041;-60
2022/09/20 09:17:55;;;;;;;4.07;0.88;;;17.40;99.90;;;;;;5050606;28;20047;-60
2022/09/20 09:20:23;;;;;;;4.90;1.00;;;17.90;99.90;;;;;;5046662;28;20502;-61
2022/09/20 09:22:59;;;;;;;4.97;0.77;;;18.40;99.90;;;;;;5056320;28;20075;-61
2022/09/20 09:25:36;;;;;;;5.28;0.98;;;18.70;99.90;;;;;;5043162;28;20191;-61
2022/09/20 09:28:08;;;;;;;4.90;0.88;;;19.10;99.90;;;;;;5061117;28;20041;-61
2022/09/20 09:30:48;;;;;;;4.43;0.75;;;19.30;99.90;;;;;;5046056;28;20041;-61
2022/09/20 09:33:26;;;;;;;3.75;0.70;;;19.10;99.90;;;;;;5057717;28;20061;-60
2022/09/20 09:36:06;;;;;;;3.10;0.60;;;19.10;99.90;;;;;;5054208;28;20037;-61
2022/09/20 09:38:37;;;;;;;4.40;0.82;;;19.60;99.90;;;;;;5061832;28;20514;-62
2022/09/20 09:41:16;;;;;;;4.10;0.90;;;19.70;99.90;;;;;;5046432;28;20060;-60
2022/09/20 09:43:42;;;;;;;3.85;0.90;;;19.80;99.90;;;;;;5046466;28;20165;-61
2022/09/20 09:46:25;;;;;;;6.32;0.90;;;19.30;99.90;;;;;;5059888;28;20557;-60
2022/09/20 09:49:15;;;;;;;4.93;0.88;;;18.50;99.90;;;;;;5052945;28;20131;-61
2022/09/20 09:52:02;;;;;;;2.85;0.75;;;17.10;99.90;;;;;;5048950;28;20056;-60
2022/09/20 09:54:34;;;;;;;4.82;0.95;;;16.60;99.90;;;;;;5059893;28;20102;-61
2022/09/20 09:57:07;;;;;;;5.30;1.00;;;16.10;99.90;;;;;;5047429;28;20037;-61
2022/09/20 09:59:46;;;;;;;3.83;0.85;;;15.70;99.90;;;;;;5057181;28;20563;-60
2022/09/20 10:02:53;;;;;;;4.13;0.90;;;15.60;99.90;;;;;;5051641;28;20052;-60
2022/09/20 10:05:43;;;;;;;5.32;1.08;;;15.30;99.90;;;;;;5043770;28;20356;-61
2022/09/20 10:08:42;;;;;;;5.82;1.00;;;15.10;99.90;;;;;;5052409;28;20040;-61
2022/09/20 10:11:19;;;;;;;4.03;0.68;;;15.10;99.90;;;;;;5043379;28;20057;-60
2022/09/20 10:14:14;;;;;;;2.70;0.70;;;15.10;99.90;;;;;;5056917;28;20040;-61
2022/09/20 10:17:04;;;;;;;6.10;1.13;;;15.20;99.90;;;;;;5056432;28;20051;-60
2022/09/20 10:19:47;;;;;;;4.15;0.80;;;15.20;99.90;;;;;;5051552;28;20048;-61
2022/09/20 10:22:32;;;;;;;5.35;0.90;;;15.10;99.90;;;;;;5048059;28;20063;-61
2022/09/20 10:25:18;;;;;;;4.90;1.05;;;15.10;99.90;;;;;;5060203;28;20424;-61
2022/09/20 10:28:16;;;;;;;3.85;0.52;;;15.60;99.90;;;;;;5047239;28;20441;-61
2022/09/20 10:31:13;;;;;;;3.45;0.60;;;16.50;99.90;;;;;;5050544;28;20583;-59
2022/09/20 10:34:10;;;;;;;4.20;0.85;;;17.30;99.90;;;;;;5058172;28;20060;-60
2022/09/20 10:36:56;;;;;;;4.85;0.95;;;18.00;99.90;;;;;;5048662;28;20147;-60
2022/09/20 10:39:32;;;;;;;5.30;0.80;;;18.40;99.90;;;;;;5050885;28;20052;-61
2022/09/20 10:45:06;;;;;;;5.18;0.80;;;19.00;99.90;;;;;;5043464;28;20107;-61
2022/09/20 10:47:49;;;;;;;7.43;1.00;;;18.50;99.90;;;;;;5056251;28;20545;-60
2022/09/20 10:50:28;;;;;;;4.95;1.00;;;18.30;99.90;;;;;;5052266;28;20037;-60
2022/09/20 10:53:12;;;;;;;3.65;0.73;;;17.90;99.90;;;;;;5047499;28;20296;-60
2022/09/20 10:55:58;;;;;;;3.50;0.60;;;17.70;99.90;;;;;;5060135;28;20129;-61
2022/09/20 10:58:36;;;;;;;6.32;0.90;;;17.60;99.90;;;;;;5047200;28;20464;-62
2022/09/20 11:01:11;;;;;;;4.35;0.90;;;17.40;99.90;;;;;;5052564;28;20071;-61
2022/09/20 11:03:43;;;;;;;;;;;17.20;99.90;;;;;;5057639;28;20045;-62
2022/09/20 11:06:19;;;;;;;5.65;1.10;;;17.30;99.90;;;;;;5050279;28;20008;-64
2022/09/20 11:08:49;;;;;;;6.43;0.85;;;17.30;99.90;;;;;;5062957;28;20473;-60
2022/09/20 11:11:30;;;;;;;4.28;0.82;;;17.40;99.90;;;;;;5048852;28;20041;-61
2022/09/20 11:14:33;;;;;;;5.30;1.02;;;17.40;99.90;;;;;;5058251;28;20503;-61
2022/09/20 11:17:20;;;;;;;5.07;0.88;;;17.40;99.90;;;;;;4993282;28;20057;-62
2022/09/20 11:20:07;;;;;;;4.57;1.10;;;17.30;99.90;;;;;;5048264;28;20103;-60
2022/09/20 11:22:47;;;;;;;4.53;0.90;;;17.60;99.90;;;;;;5057229;28;20109;-61
2022/09/20 11:25:13;;;;;;;3.97;0.88;;;17.80;99.90;;;;;;5053997;28;20049;-61
2022/09/20 11:27:51;;;;;;;6.55;1.02;;;18.10;99.90;;;;;;5057807;28;20533;-60
2022/09/20 11:30:19;;;;;;;11.20;1.42;;;18.00;99.90;;;;;;5060667;28;20060;-60
2022/09/20 11:32:48;;;;;;;4.60;0.82;;;18.20;99.90;;;;;;5051900;28;20080;-61
2022/09/20 11:35:32;;;;;;;4.03;1.10;;;18.30;99.90;;;;;;5064736;28;20118;-60
2022/09/20 11:38:20;;;;;;;3.58;0.90;;;18.40;99.90;;;;;;5056648;28;20559;-63
2022/09/20 11:40:54;;;;;;;5.40;0.95;;;18.20;99.90;;;;;;5061004;28;20424;-61
2022/09/20 11:43:22;;;;;;;4.55;1.10;;;18.10;99.90;;;;;;5048161;28;20068;-60
2022/09/20 11:45:53;;;;;;;7.57;1.20;;;18.10;99.90;;;;;;5063028;28;20292;-60
2022/09/20 11:48:31;;;;;;;4.50;1.00;;;18.90;99.90;;;;;;5046990;28;20052;-61
2022/09/20 11:51:27;;;;;;;4.45;0.80;;;18.50;99.90;;;;;;5058558;28;20060;-60
2022/09/20 11:54:11;;;;;;;6.65;0.95;;;18.90;99.90;;;;;;5057346;28;20050;-60
2022/09/20 11:56:38;;;;;;;3.83;0.70;;;19.10;99.90;;;;;;5044975;28;20061;-60
2022/09/20 11:59:07;;;;;;;4.40;0.80;;;19.50;99.90;;;;;;5062163;28;20047;-61
2022/09/20 12:01:41;;;;;;;6.40;1.08;;;19.10;99.90;;;;;;5047931;28;20084;-60
2022/09/20 12:04:22;;;;;;;6.35;0.90;;;18.70;99.90;;;;;;5057053;28;20147;-61
2022/09/20 12:07:01;;;;;;;4.13;0.82;;;18.60;99.90;;;;;;5055264;28;20059;-63
2022/09/20 12:09:39;;;;;;;5.82;0.90;;;17.90;99.90;;;;;;5048375;28;20045;-61
2022/09/20 12:12:23;;;;;;;5.57;1.00;;;17.80;99.90;;;;;;5061774;28;20057;-65
2022/09/20 12:14:57;;;;;;;6.47;0.90;;;17.50;99.90;;;;;;5048669;28;20135;-61
2022/09/20 12:17:44;;;;;;;5.57;1.25;;;17.50;99.90;;;;;;5053585;28;20392;-62
2022/09/20 12:20:32;;;;;;;4.35;0.75;;;17.30;99.90;;;;;;5057381;28;20127;-61
2022/09/20 12:23:35;;;;;;;7.82;0.95;;;17.20;99.90;;;;;;5045318;28;20053;-61
2022/09/20 12:26:07;;;;;;;7.47;1.00;;;17.50;99.90;;;;;;5063828;28;20049;-66
2022/09/20 12:28:44;;;;;;;6.03;1.20;;;17.80;99.90;;;;;;5053398;28;20080;-63
2022/09/20 12:31:24;;;;;;;5.35;1.10;;;17.80;99.90;;;;;;5057544;28;20052;-67
2022/09/20 12:34:03;;;;;;;4.75;1.10;;;17.60;99.90;;;;;;5046386;28;20087;-61
2022/09/20 12:36:35;;;;;;;8.40;1.60;;;17.10;99.90;;;;;;5060999;28;20045;-63
2022/09/20 12:39:12;;;;;;;7.85;1.08;;;16.90;99.90;;;;;;5051493;28;20524;-64
2022/09/20 12:41:51;;;;;;;13.77;1.30;;;16.80;99.90;;;;;;5054756;28;20037;-63
2022/09/20 12:44:36;;;;;;;7.88;1.33;;;16.60;99.90;;;;;;5059051;28;20048;-64
2022/09/20 12:47:07;;;;;;;7.63;1.30;;;16.40;99.90;;;;;;5042848;28;20454;-66
2022/09/20 12:55:28;;;;;;;4.68;0.75;;;16.40;99.90;;;;;;5060903;28;20078;-62
2022/09/20 12:58:00;;;;;;;6.38;0.90;;;16.30;99.90;;;;;;5048017;28;20139;-66
2022/09/20 13:00:39;;;;;;;4.68;0.88;;;16.30;99.90;;;;;;5063259;28;20048;-64
2022/09/20 13:03:47;;;;;;;3.67;0.88;;;16.20;99.90;;;;;;5053844;28;20409;-65
2022/09/20 13:06:18;;;;;;;8.20;1.10;;;16.10;99.90;;;;;;5051260;28;20049;-64
2022/09/20 13:09:09;;;;;;;5.80;1.10;;;16.20;99.90;;;;;;5061701;28;20616;-62
2022/09/20 13:11:59;;;;;;;3.88;0.68;;;16.40;99.90;;;;;;5051187;28;20032;-64
2022/09/20 13:14:31;;;;;;;4.13;1.10;;;16.80;99.90;;;;;;5054214;28;20049;-63
2022/09/20 13:17:14;;;;;;;5.38;0.73;;;17.10;99.90;;;;;;5057663;28;20048;-64
2022/09/20 13:19:45;;;;;;;3.42;0.93;;;17.40;99.90;;;;;;5047027;28;20044;-63
2022/09/20 13:22:19;;;;;;;5.35;0.75;;;17.70;99.90;;;;;;5046319;28;20059;-63
2022/09/20 13:24:47;;;;;;;5.22;0.70;;;18.00;99.90;;;;;;5058379;28;20051;-63
2022/09/20 13:27:25;;;;;;;3.67;0.70;;;18.00;99.90;;;;;;5050872;28;20430;-62
2022/09/20 13:29:52;;;;;;;1.45;0.52;;;18.10;99.90;;;;;;5053083;28;20045;-63
2022/09/20 13:32:23;;;;;;;3.78;0.60;;;18.10;99.90;;;;;;5057786;28;20066;-67
2022/09/20 13:35:14;;;;;;;3.72;0.65;;;17.90;99.90;;;;;;5047817;28;20151;-64
2022/09/20 13:37:52;;;;;;;4.47;0.70;;;18.30;99.90;;;;;;5046741;28;20036;-65
2022/09/20 13:40:33;;;;;;;2.92;0.68;;;18.20;99.90;;;;;;5056707;28;20128;-66
2022/09/20 13:43:02;;;;;;;3.65;0.80;;;18.00;99.90;;;;;;5055853;28;20040;-65
2022/09/20 13:45:27;;;;;;;3.65;0.52;;;18.00;99.90;;;;;;5048619;28;20102;-64
2022/09/20 13:47:56;;;;;;;6.15;0.70;;;17.90;99.90;;;;;;5059393;28;20048;-64
2022/09/20 13:50:25;;;;;;;12.00;1.10;;;18.00;99.90;;;;;;5045382;28;20041;-65
2022/09/20 13:52:57;;;;;;;6.05;0.90;;;17.90;99.90;;;;;;5060388;28;20068;-64
2022/09/20 13:55:38;;;;;;;3.92;0.93;;;17.80;99.90;;;;;;5049251;28;20495;-64
2022/09/20 13:58:21;;;;;;;1.77;0.50;;;17.50;99.90;;;;;;5053760;28;20041;-65